Time;durP1;ratioP1;P1;durP2;ratioP2;P2;SDS_P1;SDS_P2;PMS_P1;PMS_P2;Temp;Humidity;BMP_temperature;BMP_pressure;BME280_temperature;BME280_humidity;BME280_pressure;Samples;Min_cycle;Max_cycle;Signal;HPM_P1;HPM_P2
2021/03/26 00:00:46;;;;;;;78.55;33.10;;;6.00;92.20;;;;;;5009859;28;20244;-66
2021/03/26 00:03:15;;;;;;;77.25;33.60;;;5.90;92.30;;;;;;5012370;28;20065;-68
2021/03/26 00:05:42;;;;;;;66.88;31.38;;;5.90;92.70;;;;;;5014369;28;20250;-68
2021/03/26 00:08:12;;;;;;;72.97;32.60;;;6.00;93.00;;;;;;5016985;28;20256;-68
2021/03/26 00:10:37;;;;;;;64.72;30.50;;;5.90;92.60;;;;;;5015292;28;20033;-68
2021/03/26 00:13:04;;;;;;;64.75;32.03;;;5.70;92.30;;;;;;5006686;28;20035;-68
2021/03/26 00:15:30;;;;;;;73.85;31.25;;;5.70;92.50;;;;;;5013985;28;20025;-68
2021/03/26 00:17:55;;;;;;;61.20;30.80;;;5.60;92.50;;;;;;5019158;28;20040;-69
2021/03/26 00:20:21;;;;;;;70.82;31.42;;;5.60;92.50;;;;;;5021054;28;20061;-68
2021/03/26 00:22:47;;;;;;;67.28;30.42;;;5.60;92.70;;;;;;5019618;28;20029;-68
2021/03/26 00:25:13;;;;;;;61.17;31.33;;;5.60;92.80;;;;;;5016059;28;20041;-68
2021/03/26 00:27:39;;;;;;;59.28;29.63;;;5.40;92.70;;;;;;5021777;28;20031;-69
2021/03/26 00:30:07;;;;;;;74.35;31.92;;;5.30;92.70;;;;;;5017027;28;20652;-68
2021/03/26 00:32:34;;;;;;;62.92;30.90;;;5.30;93.00;;;;;;5013196;28;20033;-69
2021/03/26 00:35:00;;;;;;;68.88;32.40;;;5.30;93.00;;;;;;5020754;28;20033;-66
2021/03/26 00:37:26;;;;;;;79.47;34.55;;;5.30;93.20;;;;;;5017871;28;20055;-67
2021/03/26 00:39:52;;;;;;;75.63;32.83;;;5.30;93.30;;;;;;5015312;28;20552;-68
2021/03/26 00:42:18;;;;;;;82.32;33.85;;;5.30;93.50;;;;;;5011002;28;20057;-71
2021/03/26 00:44:43;;;;;;;80.68;33.55;;;5.30;93.40;;;;;;5017149;28;20033;-68
2021/03/26 00:47:09;;;;;;;78.28;34.60;;;5.30;93.20;;;;;;5015165;28;20036;-68
2021/03/26 00:49:35;;;;;;;93.05;36.72;;;5.20;93.30;;;;;;5013312;28;20021;-67
2021/03/26 00:52:02;;;;;;;97.80;38.13;;;5.20;93.50;;;;;;5012576;28;20036;-68
2021/03/26 00:54:27;;;;;;;88.22;37.92;;;5.10;93.50;;;;;;5022169;28;21349;-67
2021/03/26 00:56:53;;;;;;;110.10;40.60;;;5.20;93.90;;;;;;5011543;28;20021;-68
2021/03/26 00:59:18;;;;;;;120.95;41.35;;;5.20;94.10;;;;;;5009605;28;20045;-68
2021/03/26 01:01:44;;;;;;;125.60;42.03;;;5.30;94.30;;;;;;5013879;28;20171;-68
2021/03/26 01:04:10;;;;;;;139.50;43.95;;;5.30;94.30;;;;;;5010429;28;20558;-67
2021/03/26 01:06:36;;;;;;;150.80;46.08;;;5.30;94.30;;;;;;5015680;28;20159;-68
2021/03/26 01:09:02;;;;;;;142.15;45.17;;;5.30;94.40;;;;;;5005615;28;20118;-68
2021/03/26 01:11:34;;;;;;;143.95;44.50;;;5.30;94.50;;;;;;5016858;28;20030;-68
2021/03/26 01:14:01;;;;;;;148.30;46.00;;;5.20;94.50;;;;;;5014660;28;20026;-68
2021/03/26 01:16:28;;;;;;;165.35;48.38;;;5.30;94.60;;;;;;5015997;28;20045;-67
2021/03/26 01:18:54;;;;;;;174.85;50.28;;;5.30;94.80;;;;;;5011462;28;20444;-67
2021/03/26 01:21:29;;;;;;;162.00;48.05;;;5.30;94.90;;;;;;5018187;28;20029;-68
2021/03/26 01:23:55;;;;;;;176.27;48.45;;;5.30;94.80;;;;;;5016254;28;20669;-68
2021/03/26 01:26:22;;;;;;;187.50;52.42;;;5.30;95.00;;;;;;5019077;28;20038;-67
2021/03/26 01:28:48;;;;;;;193.27;50.53;;;5.40;95.10;;;;;;5017637;28;20104;-68
2021/03/26 01:31:13;;;;;;;198.00;52.22;;;5.40;95.20;;;;;;5021604;28;20028;-68
2021/03/26 01:33:40;;;;;;;188.88;50.40;;;5.50;95.20;;;;;;5018477;28;20033;-72
2021/03/26 01:36:07;;;;;;;196.27;50.35;;;5.40;95.00;;;;;;5012448;28;20548;-67
2021/03/26 01:38:32;;;;;;;196.45;51.65;;;5.30;95.00;;;;;;5016656;28;20033;-67
2021/03/26 01:41:02;;;;;;;194.80;49.95;;;5.30;95.10;;;;;;5015554;28;20034;-68
2021/03/26 01:43:38;;;;;;;212.05;52.58;;;5.20;95.10;;;;;;5011061;28;20141;-69
2021/03/26 01:46:09;;;;;;;211.02;52.42;;;5.30;95.30;;;;;;5016275;28;20506;-69
2021/03/26 01:48:36;;;;;;;;;;;5.20;95.40;;;;;;5015319;28;20018;-68
2021/03/26 01:51:07;;;;;;;205.48;51.90;;;5.10;95.30;;;;;;5015039;28;20305;-68
2021/03/26 01:53:32;;;;;;;222.02;53.58;;;5.10;95.40;;;;;;5015361;28;20048;-69
2021/03/26 01:56:00;;;;;;;212.60;53.03;;;5.10;95.50;;;;;;5011015;28;20025;-69
2021/03/26 01:58:30;;;;;;;240.45;53.80;;;5.10;95.60;;;;;;5020858;28;20042;-68
2021/03/26 02:00:59;;;;;;;225.88;51.85;;;5.10;95.70;;;;;;5017658;28;20026;-67
2021/03/26 02:03:35;;;;;;;232.63;53.33;;;5.10;95.70;;;;;;5019759;28;20036;-69
2021/03/26 02:06:17;;;;;;;234.65;55.58;;;5.10;95.80;;;;;;5014594;28;20128;-68
2021/03/26 02:08:44;;;;;;;246.23;55.58;;;5.10;95.80;;;;;;5021920;28;20112;-68
2021/03/26 02:11:34;;;;;;;232.05;53.42;;;5.20;95.90;;;;;;5003356;28;20112;-69
2021/03/26 02:14:03;;;;;;;254.55;54.75;;;5.10;95.80;;;;;;5023119;28;20064;-68
2021/03/26 02:16:29;;;;;;;216.10;52.70;;;5.10;95.80;;;;;;5004904;28;20030;-69
2021/03/26 02:18:55;;;;;;;239.18;56.25;;;5.10;95.90;;;;;;5021997;28;20033;-70
2021/03/26 02:21:27;;;;;;;226.80;55.70;;;5.10;95.90;;;;;;5022742;28;20398;-69
2021/03/26 02:23:55;;;;;;;232.93;54.92;;;5.00;95.90;;;;;;5016450;28;20044;-69
2021/03/26 02:26:23;;;;;;;249.23;55.45;;;5.00;95.90;;;;;;5017031;28;20040;-69
2021/03/26 02:28:50;;;;;;;250.40;55.90;;;5.10;96.10;;;;;;5010034;28;20455;-67
2021/03/26 02:31:17;;;;;;;240.80;56.42;;;5.10;96.10;;;;;;5016112;28;20041;-67
2021/03/26 02:33:45;;;;;;;235.98;58.40;;;5.10;96.00;;;;;;5010258;28;20029;-67
2021/03/26 02:36:17;;;;;;;259.08;56.63;;;5.10;96.10;;;;;;5006196;28;20037;-68
2021/03/26 02:38:50;;;;;;;247.20;56.28;;;5.10;96.10;;;;;;5012918;28;20033;-69
2021/03/26 02:41:16;;;;;;;241.60;56.60;;;5.10;96.00;;;;;;5007688;28;20121;-68
2021/03/26 02:44:07;;;;;;;253.48;56.20;;;5.10;96.10;;;;;;5002924;28;20156;-68
2021/03/26 02:46:58;;;;;;;258.77;55.20;;;5.10;96.10;;;;;;5010103;28;20160;-70
2021/03/26 02:49:40;;;;;;;261.30;58.90;;;5.20;96.20;;;;;;5008684;28;20038;-65
2021/03/26 02:52:13;;;;;;;272.60;58.33;;;5.20;96.20;;;;;;5007681;28;20096;-66
2021/03/26 02:55:02;;;;;;;255.20;58.65;;;5.30;96.30;;;;;;5003691;28;20033;-67
2021/03/26 02:57:40;;;;;;;277.88;58.42;;;5.30;96.20;;;;;;5005516;28;20037;-66
2021/03/26 03:00:36;;;;;;;262.70;57.38;;;5.30;96.20;;;;;;5003883;28;20064;-68
2021/03/26 03:03:04;;;;;;;256.38;57.53;;;5.20;96.20;;;;;;5019417;28;20029;-68
2021/03/26 03:05:42;;;;;;;250.35;55.85;;;5.30;96.20;;;;;;5022361;28;20029;-68
2021/03/26 03:08:12;;;;;;;268.38;58.15;;;5.20;96.10;;;;;;5017917;28;20120;-68
2021/03/26 03:10:47;;;;;;;267.92;54.70;;;5.30;96.30;;;;;;5004425;28;20066;-67
2021/03/26 03:13:33;;;;;;;258.83;57.50;;;5.20;96.10;;;;;;5005079;28;20017;-68
2021/03/26 03:16:11;;;;;;;277.52;57.40;;;5.30;96.20;;;;;;5024287;28;20038;-68
2021/03/26 03:18:43;;;;;;;260.58;56.13;;;5.30;96.20;;;;;;5011080;28;20038;-68
2021/03/26 03:21:35;;;;;;;249.48;55.83;;;5.30;96.20;;;;;;5010435;28;20032;-68
2021/03/26 03:24:23;;;;;;;254.63;55.17;;;5.30;96.10;;;;;;5017688;28;20017;-69
2021/03/26 03:26:52;;;;;;;252.55;57.38;;;5.40;96.10;;;;;;5008087;28;20041;-68
2021/03/26 03:29:26;;;;;;;251.27;58.10;;;5.40;96.10;;;;;;5010231;28;20368;-68
2021/03/26 03:32:10;;;;;;;231.48;53.10;;;5.40;95.90;;;;;;5010130;28;20068;-68
2021/03/26 03:34:40;;;;;;;236.48;54.22;;;5.20;95.80;;;;;;5019464;28;20030;-68
2021/03/26 03:37:24;;;;;;;243.23;54.63;;;5.30;95.80;;;;;;5017879;28;20414;-68
2021/03/26 03:39:59;;;;;;;243.30;55.35;;;5.30;95.80;;;;;;5012766;28;20589;-68
2021/03/26 03:42:32;;;;;;;242.50;55.33;;;5.30;95.90;;;;;;5004216;28;20037;-69
2021/03/26 03:45:07;;;;;;;234.90;52.13;;;5.30;95.80;;;;;;5001417;28;20028;-68
2021/03/26 03:47:43;;;;;;;239.88;55.03;;;5.40;95.80;;;;;;5009215;28;20029;-68
2021/03/26 03:50:21;;;;;;;244.73;53.95;;;5.40;95.80;;;;;;5026554;28;20061;-68
2021/03/26 03:53:22;;;;;;;241.23;54.10;;;5.40;95.70;;;;;;5019158;28;20368;-67
2021/03/26 03:56:02;;;;;;;239.43;52.97;;;5.50;95.70;;;;;;5021231;28;20276;-69
2021/03/26 03:58:32;;;;;;;239.13;54.05;;;5.50;95.60;;;;;;5004758;28;20033;-68
2021/03/26 04:01:08;;;;;;;222.65;53.17;;;5.50;95.50;;;;;;5021431;28;20083;-69
2021/03/26 04:03:53;;;;;;;225.07;55.05;;;5.60;95.50;;;;;;5006276;28;20073;-68
2021/03/26 04:06:21;;;;;;;219.68;53.60;;;5.60;95.30;;;;;;5016060;28;20509;-68
2021/03/26 04:09:00;;;;;;;187.07;50.58;;;5.70;95.20;;;;;;5004207;28;20045;-68
2021/03/26 04:11:33;;;;;;;214.25;53.10;;;5.70;94.80;;;;;;5015772;28;20026;-68
2021/03/26 04:14:22;;;;;;;196.38;51.28;;;5.70;94.90;;;;;;5018309;28;20048;-68
2021/03/26 04:17:05;;;;;;;171.88;48.75;;;5.80;94.60;;;;;;5016589;28;20022;-68
2021/03/26 04:19:36;;;;;;;168.98;49.83;;;5.80;94.50;;;;;;5007530;28;20400;-68
2021/03/26 04:22:07;;;;;;;154.40;48.88;;;5.90;94.30;;;;;;5011009;28;20037;-68
2021/03/26 04:24:45;;;;;;;149.63;46.65;;;6.00;94.00;;;;;;5018377;28;20545;-68
2021/03/26 04:27:27;;;;;;;129.20;44.42;;;6.10;93.70;;;;;;5013488;28;20034;-67
2021/03/26 04:30:02;;;;;;;121.40;43.97;;;6.10;93.70;;;;;;5011908;28;20396;-68
2021/03/26 04:32:27;;;;;;;117.43;44.22;;;6.10;93.50;;;;;;5016161;28;20029;-68
2021/03/26 04:34:54;;;;;;;110.07;42.67;;;6.10;93.40;;;;;;5012446;28;20022;-69
2021/03/26 04:37:55;;;;;;;112.53;42.80;;;6.10;93.30;;;;;;5011383;28;20180;-68
2021/03/26 04:40:34;;;;;;;107.17;41.73;;;6.00;93.30;;;;;;5008406;28;20029;-68
2021/03/26 04:43:45;;;;;;;98.10;38.75;;;6.10;93.40;;;;;;5012089;28;20767;-68
2021/03/26 04:46:35;;;;;;;103.68;41.50;;;6.00;93.40;;;;;;4975955;28;20026;-67
2021/03/26 04:49:17;;;;;;;105.25;40.83;;;6.00;93.40;;;;;;4974607;28;20033;-68
2021/03/26 04:51:55;;;;;;;95.45;39.63;;;6.10;93.50;;;;;;5007935;28;20116;-68
2021/03/26 04:54:44;;;;;;;92.40;41.17;;;6.00;93.30;;;;;;5016463;28;20108;-68
2021/03/26 04:57:26;;;;;;;90.70;39.15;;;6.00;93.50;;;;;;5018566;28;20022;-67
2021/03/26 05:00:16;;;;;;;92.47;40.10;;;5.90;93.60;;;;;;5006327;28;20033;-68
2021/03/26 05:03:05;;;;;;;96.30;40.53;;;5.90;93.70;;;;;;5010942;28;20108;-69
2021/03/26 05:05:36;;;;;;;103.57;40.80;;;6.00;93.80;;;;;;5013608;28;20087;-67
2021/03/26 05:08:05;;;;;;;88.72;39.60;;;6.00;93.80;;;;;;5005322;28;20030;-68
2021/03/26 05:10:34;;;;;;;98.63;43.60;;;6.00;93.80;;;;;;5005615;28;20443;-65
2021/03/26 05:13:10;;;;;;;87.65;41.95;;;6.10;94.00;;;;;;5010396;28;20030;-68
2021/03/26 05:15:43;;;;;;;93.65;42.58;;;6.00;93.70;;;;;;5019869;28;20147;-67
2021/03/26 05:18:18;;;;;;;94.35;41.53;;;5.90;93.80;;;;;;5009015;28;20112;-69
2021/03/26 05:20:53;;;;;;;96.50;44.05;;;5.90;94.10;;;;;;5015238;28;20052;-68
2021/03/26 05:23:25;;;;;;;90.75;43.17;;;5.80;94.00;;;;;;5004593;28;20030;-63
2021/03/26 05:25:55;;;;;;;101.38;43.03;;;5.70;94.10;;;;;;5021783;28;20363;-62
2021/03/26 05:28:29;;;;;;;107.03;44.93;;;5.60;94.20;;;;;;5009581;28;20041;-62
2021/03/26 05:30:57;;;;;;;110.63;46.47;;;5.60;94.50;;;;;;5010293;28;20311;-62
2021/03/26 05:33:26;;;;;;;118.75;47.83;;;5.60;94.60;;;;;;5006686;28;20026;-63
2021/03/26 05:36:23;;;;;;;123.30;47.45;;;5.70;94.80;;;;;;5009463;28;20469;-62
2021/03/26 05:38:55;;;;;;;127.18;50.08;;;5.70;94.90;;;;;;5014579;28;20095;-62
2021/03/26 05:41:23;;;;;;;125.18;48.88;;;5.70;94.90;;;;;;5005812;28;20297;-62
2021/03/26 05:44:24;;;;;;;144.90;52.55;;;5.70;94.90;;;;;;5012760;28;20368;-62
2021/03/26 05:47:10;;;;;;;139.77;47.97;;;5.80;95.10;;;;;;5010019;28;20419;-62
2021/03/26 05:50:18;;;;;;;138.48;51.28;;;5.80;95.10;;;;;;5012982;28;20034;-62
2021/03/26 05:52:49;;;;;;;128.77;49.72;;;5.80;95.00;;;;;;5016777;28;20022;-63
2021/03/26 05:55:15;;;;;;;;;;;5.80;95.00;;;;;;5020736;28;20081;-62
2021/03/26 05:57:55;;;;;;;125.35;47.95;;;5.80;94.90;;;;;;5015812;28;20159;-62
2021/03/26 06:00:59;;;;;;;125.25;48.70;;;5.80;95.00;;;;;;5006374;28;20608;-62
2021/03/26 06:03:56;;;;;;;113.30;46.90;;;5.80;94.90;;;;;;5001919;28;20053;-62
2021/03/26 06:06:43;;;;;;;118.28;50.28;;;5.90;94.90;;;;;;4997356;28;20480;-61
2021/03/26 06:09:25;;;;;;;116.88;47.55;;;5.90;95.00;;;;;;4997893;28;20062;-62
2021/03/26 06:12:00;;;;;;;129.02;49.47;;;6.00;95.00;;;;;;4995625;28;20022;-62
2021/03/26 06:14:34;;;;;;;124.22;49.10;;;6.00;95.00;;;;;;4997358;28;20082;-62
2021/03/26 06:17:12;;;;;;;123.70;50.42;;;6.00;94.90;;;;;;4997555;28;20025;-62
2021/03/26 06:19:54;;;;;;;120.65;49.72;;;6.10;94.80;;;;;;4979795;28;20041;-62
2021/03/26 06:22:30;;;;;;;119.32;51.35;;;6.10;94.80;;;;;;4977011;28;20088;-62
2021/03/26 06:25:37;;;;;;;115.60;49.15;;;6.10;94.70;;;;;;5004404;28;20029;-62
2021/03/26 06:28:03;;;;;;;113.38;50.15;;;6.20;94.70;;;;;;4998033;28;20407;-61
2021/03/26 06:31:06;;;;;;;113.82;49.40;;;6.30;94.60;;;;;;4988014;28;20308;-62
2021/03/26 06:34:06;;;;;;;106.30;49.17;;;6.40;94.60;;;;;;4997212;28;20036;-63
2021/03/26 06:37:16;;;;;;;99.13;49.20;;;6.50;94.30;;;;;;4985563;28;20042;-61
2021/03/26 06:40:12;;;;;;;100.45;48.25;;;6.60;94.10;;;;;;5003417;28;20119;-62
2021/03/26 06:42:40;;;;;;;105.30;48.95;;;6.70;93.90;;;;;;4992251;28;20062;-62
2021/03/26 06:46:01;;;;;;;99.30;47.47;;;6.80;93.80;;;;;;4988364;28;20034;-63
2021/03/26 06:48:45;;;;;;;92.20;47.35;;;6.90;93.60;;;;;;4979859;28;20196;-63
2021/03/26 06:51:41;;;;;;;92.20;47.28;;;7.00;93.40;;;;;;4992841;28;20026;-64
2021/03/26 06:54:30;;;;;;;95.20;48.75;;;7.10;93.30;;;;;;4989047;28;20045;-64
2021/03/26 06:57:34;;;;;;;88.70;45.75;;;7.30;92.80;;;;;;4990115;28;20014;-61
2021/03/26 07:00:28;;;;;;;81.75;45.50;;;7.30;92.20;;;;;;4984312;28;20065;-61
2021/03/26 07:03:31;;;;;;;73.80;42.95;;;7.40;92.20;;;;;;4990830;28;20325;-61
2021/03/26 07:06:34;;;;;;;69.95;42.65;;;7.50;91.80;;;;;;4984431;28;20061;-61
2021/03/26 07:09:45;;;;;;;78.22;42.75;;;7.70;91.70;;;;;;4986993;28;20514;-61
2021/03/26 07:12:49;;;;;;;71.95;40.70;;;7.80;91.50;;;;;;4995993;28;20169;-62
2021/03/26 07:15:21;;;;;;;68.97;41.35;;;7.80;90.60;;;;;;4987597;28;20034;-61
2021/03/26 07:18:05;;;;;;;68.95;41.38;;;8.10;90.90;;;;;;4984444;28;20430;-61
2021/03/26 07:20:47;;;;;;;61.72;37.92;;;8.10;90.50;;;;;;4984617;28;20699;-61
2021/03/26 07:23:40;;;;;;;64.05;37.95;;;8.30;90.10;;;;;;4989074;28;20112;-60
2021/03/26 07:26:30;;;;;;;63.13;37.17;;;8.30;89.50;;;;;;4994702;28;20026;-60
2021/03/26 07:29:27;;;;;;;57.97;37.00;;;8.40;89.20;;;;;;4992001;28;20026;-62
2021/03/26 07:32:12;;;;;;;60.78;36.67;;;8.50;89.10;;;;;;4994723;28;20034;-62
2021/03/26 07:34:38;;;;;;;56.00;35.22;;;8.60;88.90;;;;;;4994608;28;20029;-62
2021/03/26 07:37:12;;;;;;;54.67;36.08;;;8.70;88.10;;;;;;4991042;28;20598;-64
2021/03/26 07:39:49;;;;;;;54.15;34.88;;;8.80;87.90;;;;;;4999156;28;20022;-63
2021/03/26 07:42:56;;;;;;;51.10;33.97;;;8.90;87.90;;;;;;4988801;28;20387;-63
2021/03/26 07:45:36;;;;;;;53.35;34.20;;;9.00;87.50;;;;;;4990690;28;20109;-63
2021/03/26 07:48:12;;;;;;;53.80;34.63;;;9.10;86.70;;;;;;4996909;28;20022;-63
2021/03/26 07:51:09;;;;;;;52.80;34.65;;;9.10;86.60;;;;;;4996926;28;20022;-63
2021/03/26 07:53:43;;;;;;;46.70;32.05;;;9.30;87.00;;;;;;4992702;28;20107;-62
2021/03/26 07:56:17;;;;;;;49.05;32.47;;;9.30;85.50;;;;;;5002537;28;20034;-62
2021/03/26 07:58:58;;;;;;;47.65;31.73;;;9.60;85.40;;;;;;4996820;28;20510;-63
2021/03/26 08:01:40;;;;;;;47.35;30.83;;;9.90;84.70;;;;;;4995174;28;20220;-64
2021/03/26 08:04:17;;;;;;;47.25;30.50;;;9.80;83.00;;;;;;5000075;28;20022;-63
2021/03/26 08:07:01;;;;;;;45.35;28.98;;;10.00;83.20;;;;;;5002796;28;20026;-63
2021/03/26 08:09:57;;;;;;;47.25;29.27;;;10.10;82.80;;;;;;5002817;28;20056;-63
2021/03/26 08:12:41;;;;;;;47.10;29.05;;;10.30;81.90;;;;;;4992193;28;20030;-63
2021/03/26 08:15:18;;;;;;;42.75;27.42;;;10.40;80.80;;;;;;4998409;28;20418;-63
2021/03/26 08:18:00;;;;;;;41.65;27.10;;;10.60;79.40;;;;;;5001457;28;20415;-63
2021/03/26 08:20:40;;;;;;;43.20;26.95;;;10.60;79.20;;;;;;5000279;28;20026;-63
2021/03/26 08:23:09;;;;;;;36.35;24.42;;;10.90;79.70;;;;;;4991021;28;20037;-62
2021/03/26 08:26:15;;;;;;;39.13;24.20;;;11.10;76.50;;;;;;4997352;28;20034;-62
2021/03/26 08:28:47;;;;;;;36.60;22.15;;;11.10;76.30;;;;;;4990195;28;20027;-62
2021/03/26 08:31:34;;;;;;;35.65;22.63;;;11.30;75.90;;;;;;4986499;28;20030;-63
2021/03/26 08:34:18;;;;;;;31.88;21.58;;;11.40;75.60;;;;;;4998371;28;20026;-62
2021/03/26 08:37:08;;;;;;;31.58;21.98;;;11.60;74.20;;;;;;5001666;28;20044;-62
2021/03/26 08:39:34;;;;;;;31.52;21.55;;;11.50;73.70;;;;;;4999927;28;20257;-63
2021/03/26 08:42:06;;;;;;;34.85;22.58;;;11.80;73.90;;;;;;4989962;28;20030;-63
2021/03/26 08:44:34;;;;;;;29.42;20.35;;;12.20;73.50;;;;;;4992849;28;20058;-63
2021/03/26 08:47:03;;;;;;;32.28;21.48;;;12.10;72.40;;;;;;5005103;28;21698;-63
2021/03/26 08:49:53;;;;;;;31.77;20.10;;;11.90;72.10;;;;;;5005698;28;20049;-63
2021/03/26 08:52:53;;;;;;;29.58;19.45;;;12.40;71.80;;;;;;5006793;28;20025;-62
2021/03/26 08:55:40;;;;;;;31.50;18.45;;;12.50;70.70;;;;;;5003517;28;20021;-63
2021/03/26 08:58:50;;;;;;;29.75;19.10;;;12.50;70.40;;;;;;5000837;28;20038;-63
2021/03/26 09:01:16;;;;;;;26.30;17.88;;;12.60;70.50;;;;;;4994018;28;20495;-62
2021/03/26 09:03:59;;;;;;;30.80;18.02;;;12.60;70.60;;;;;;5004648;28;20109;-63
2021/03/26 09:06:49;;;;;;;27.67;17.88;;;12.80;68.30;;;;;;5007612;28;20061;-63
2021/03/26 09:09:42;;;;;;;26.75;17.20;;;13.30;68.70;;;;;;5002215;28;20237;-62
2021/03/26 09:12:29;;;;;;;26.67;16.75;;;13.30;66.40;;;;;;4999918;28;20041;-62
2021/03/26 09:15:16;;;;;;;22.55;15.60;;;13.10;67.60;;;;;;4997925;28;20029;-62
2021/03/26 09:18:12;;;;;;;26.05;15.90;;;13.10;66.60;;;;;;4989248;28;20101;-62
2021/03/26 09:21:04;;;;;;;26.65;15.27;;;12.90;68.00;;;;;;5006512;28;20430;-62
2021/03/26 09:23:58;;;;;;;22.70;14.60;;;12.80;66.90;;;;;;4990526;28;20042;-62
2021/03/26 09:26:53;;;;;;;21.75;13.23;;;12.70;65.90;;;;;;4996743;28;20040;-62
2021/03/26 09:29:22;;;;;;;22.48;13.55;;;12.80;65.50;;;;;;4999829;28;20117;-62
2021/03/26 09:32:06;;;;;;;21.52;13.57;;;12.60;65.00;;;;;;5020606;28;20040;-63
2021/03/26 09:34:35;;;;;;;20.63;13.13;;;12.80;64.60;;;;;;5005246;28;20117;-62
2021/03/26 09:37:26;;;;;;;22.30;14.23;;;12.90;65.80;;;;;;4991816;28;20029;-62
2021/03/26 09:40:00;;;;;;;20.42;14.27;;;13.10;65.00;;;;;;5007859;28;20061;-62
2021/03/26 09:42:38;;;;;;;20.73;13.77;;;13.30;63.20;;;;;;5002437;28;20084;-63
2021/03/26 09:45:29;;;;;;;17.83;12.77;;;13.70;62.40;;;;;;4999630;28;20018;-63
2021/03/26 09:48:26;;;;;;;18.80;12.75;;;13.60;61.30;;;;;;4996126;28;20038;-62
2021/03/26 09:51:20;;;;;;;17.30;12.25;;;13.90;61.00;;;;;;4995516;28;20726;-63
2021/03/26 09:53:48;;;;;;;20.45;11.40;;;13.90;59.80;;;;;;4996986;28;20026;-62
2021/03/26 09:56:35;;;;;;;17.73;10.82;;;13.50;60.50;;;;;;4999367;28;20085;-62
2021/03/26 09:59:32;;;;;;;16.08;11.43;;;13.10;61.40;;;;;;5006608;28;20471;-62
2021/03/26 10:02:08;;;;;;;19.48;10.98;;;13.20;59.30;;;;;;5001207;28;20038;-65
2021/03/26 10:05:12;;;;;;;16.60;10.43;;;13.20;59.70;;;;;;5001054;28;20267;-65
2021/03/26 10:07:45;;;;;;;17.15;10.80;;;13.40;59.00;;;;;;4988700;28;20030;-65
2021/03/26 10:13:08;;;;;;;18.23;11.70;;;13.60;59.20;;;;;;5000534;28;20026;-65
2021/03/26 10:15:39;;;;;;;18.02;11.25;;;13.70;58.30;;;;;;5001530;28;20025;-64
2021/03/26 10:18:40;;;;;;;20.10;11.30;;;14.10;58.40;;;;;;4993850;28;20025;-64
2021/03/26 10:21:22;;;;;;;17.65;10.93;;;14.30;57.50;;;;;;4989380;28;20133;-65
2021/03/26 10:24:25;;;;;;;18.38;10.15;;;14.20;57.80;;;;;;4998664;28;20059;-63
2021/03/26 10:27:12;;;;;;;16.77;9.73;;;14.30;55.60;;;;;;4995599;28;20038;-64
2021/03/26 10:29:50;;;;;;;15.85;8.07;;;14.60;56.40;;;;;;5003530;28;20026;-64
2021/03/26 10:32:28;;;;;;;13.50;8.45;;;14.70;50.40;;;;;;4998217;28;20061;-65
2021/03/26 10:34:57;;;;;;;15.68;10.32;;;14.70;52.50;;;;;;4998104;28;20038;-65
2021/03/26 10:37:41;;;;;;;17.25;9.77;;;15.10;53.50;;;;;;4990577;28;20113;-64
2021/03/26 10:40:32;;;;;;;15.90;9.20;;;15.40;51.40;;;;;;4990554;28;20030;-64
2021/03/26 10:43:20;;;;;;;15.00;8.98;;;14.50;52.70;;;;;;4994365;28;20442;-65
2021/03/26 10:46:00;;;;;;;15.82;9.27;;;14.30;54.10;;;;;;4997063;28;20043;-65
2021/03/26 10:49:06;;;;;;;17.35;9.25;;;14.30;54.50;;;;;;4999065;28;20041;-65
2021/03/26 10:51:47;;;;;;;15.02;8.93;;;14.30;54.10;;;;;;4993024;28;20419;-65
2021/03/26 10:54:21;;;;;;;12.73;9.30;;;14.10;54.90;;;;;;5003593;28;20073;-65
2021/03/26 10:57:26;;;;;;;14.05;9.20;;;14.40;56.00;;;;;;4994048;28;20518;-65
2021/03/26 10:59:51;;;;;;;13.05;8.45;;;14.70;54.40;;;;;;4995202;28;20101;-65
2021/03/26 11:02:33;;;;;;;13.85;8.02;;;14.90;52.20;;;;;;5001001;28;20029;-65
2021/03/26 11:05:18;;;;;;;11.90;7.60;;;15.10;51.60;;;;;;5003040;28;20084;-65
2021/03/26 11:07:49;;;;;;;11.88;6.32;;;16.10;48.40;;;;;;4997961;28;20026;-65
2021/03/26 11:10:19;;;;;;;;;;;15.60;46.10;;;;;;5005164;28;20026;-63
2021/03/26 11:13:00;;;;;;;13.95;7.40;;;15.20;48.40;;;;;;4997896;28;20197;-62
2021/03/26 11:15:36;;;;;;;12.57;7.10;;;15.00;48.50;;;;;;4997246;28;20026;-62
2021/03/26 11:18:18;;;;;;;13.43;8.63;;;15.20;50.30;;;;;;4990399;28;20279;-64
2021/03/26 11:20:56;;;;;;;13.40;8.02;;;15.10;49.70;;;;;;5004014;28;20030;-65
2021/03/26 11:23:26;;;;;;;12.38;8.27;;;15.40;50.40;;;;;;5004007;28;20030;-65
2021/03/26 11:25:53;;;;;;;12.90;8.43;;;15.50;49.40;;;;;;5004810;28;20038;-64
2021/03/26 11:28:30;;;;;;;15.93;9.18;;;15.90;49.40;;;;;;4990156;28;20445;-63
2021/03/26 11:31:08;;;;;;;12.90;8.05;;;15.90;48.70;;;;;;4996261;28;20049;-64
2021/03/26 11:34:06;;;;;;;14.23;9.68;;;15.50;48.90;;;;;;4997948;28;20026;-65
2021/03/26 11:36:40;;;;;;;14.40;9.68;;;15.30;50.00;;;;;;4990845;28;20038;-64
2021/03/26 11:39:11;;;;;;;14.57;9.85;;;15.80;50.60;;;;;;4992934;28;20129;-64
2021/03/26 11:41:50;;;;;;;13.68;9.10;;;15.60;48.90;;;;;;5002429;28;20042;-65
2021/03/26 11:44:19;;;;;;;16.77;11.02;;;15.70;50.90;;;;;;4999679;28;20265;-64
2021/03/26 11:46:51;;;;;;;15.15;10.95;;;15.90;50.70;;;;;;4988647;28;20030;-64
2021/03/26 11:49:29;;;;;;;16.08;10.82;;;16.00;50.90;;;;;;4991746;28;20037;-64
2021/03/26 11:52:09;;;;;;;18.13;12.30;;;16.40;49.20;;;;;;4992842;28;20483;-64
2021/03/26 11:54:44;;;;;;;17.25;12.18;;;16.00;49.00;;;;;;5002596;28;20092;-64
2021/03/26 11:57:29;;;;;;;19.00;13.48;;;15.50;51.00;;;;;;4994641;28;20034;-64
2021/03/26 12:00:17;;;;;;;18.30;13.23;;;15.10;53.40;;;;;;4997827;28;20113;-64
2021/03/26 12:03:06;;;;;;;18.55;12.73;;;15.40;53.40;;;;;;5003313;28;20071;-64
2021/03/26 12:05:51;;;;;;;21.10;13.60;;;15.80;51.50;;;;;;4990508;28;20431;-63
2021/03/26 12:08:37;;;;;;;20.33;13.98;;;15.60;53.00;;;;;;4994751;28;20038;-66
2021/03/26 12:11:30;;;;;;;20.17;14.23;;;16.10;52.00;;;;;;4999212;28;20026;-65
2021/03/26 12:14:20;;;;;;;18.65;14.10;;;16.40;50.80;;;;;;5000358;28;20109;-66
2021/03/26 12:17:02;;;;;;;20.20;14.35;;;17.10;48.00;;;;;;4994262;28;20281;-65
2021/03/26 12:19:31;;;;;;;19.17;15.20;;;16.60;49.70;;;;;;4999943;28;20026;-65
2021/03/26 12:22:12;;;;;;;21.63;14.77;;;16.50;52.40;;;;;;5004571;28;20117;-63
2021/03/26 12:24:41;;;;;;;;;;;17.40;49.40;;;;;;5004659;28;20609;-64
2021/03/26 12:27:09;;;;;;;16.45;12.45;;;17.60;48.00;;;;;;4998792;28;19961;-64
2021/03/26 12:29:47;;;;;;;16.13;11.63;;;17.40;46.30;;;;;;4995892;28;20069;-64
2021/03/26 12:32:53;;;;;;;16.55;12.13;;;17.20;45.80;;;;;;5006547;28;20542;-65
2021/03/26 12:35:25;;;;;;;18.30;12.02;;;16.90;47.30;;;;;;4995293;28;20041;-66
2021/03/26 12:37:51;;;;;;;17.92;13.30;;;17.00;48.80;;;;;;4995652;28;20455;-64
2021/03/26 12:40:26;;;;;;;18.63;12.68;;;17.40;48.40;;;;;;4998382;28;20044;-64
2021/03/26 12:43:04;;;;;;;17.30;12.18;;;17.00;47.60;;;;;;5000842;28;20057;-63
2021/03/26 12:45:42;;;;;;;18.70;12.55;;;16.90;47.20;;;;;;5003231;28;20410;-66
2021/03/26 12:48:18;;;;;;;18.15;12.95;;;16.70;48.80;;;;;;5004094;28;20106;-64
2021/03/26 12:50:57;;;;;;;15.52;12.40;;;16.90;48.20;;;;;;4999510;28;20388;-64
2021/03/26 12:53:39;;;;;;;15.98;12.43;;;17.30;48.40;;;;;;5001230;28;20422;-65
2021/03/26 12:56:20;;;;;;;19.67;12.80;;;18.10;45.90;;;;;;4995762;28;20111;-64
2021/03/26 12:58:52;;;;;;;17.08;13.35;;;17.00;47.30;;;;;;5005547;28;20022;-64
2021/03/26 13:01:23;;;;;;;18.98;13.40;;;16.60;49.00;;;;;;4996812;28;20497;-63
2021/03/26 13:04:24;;;;;;;18.30;12.90;;;15.60;52.00;;;;;;4976766;28;20043;-64
2021/03/26 13:06:50;;;;;;;;;;;15.30;52.20;;;;;;4999818;28;20077;-62
2021/03/26 13:09:28;;;;;;;18.17;12.15;;;15.90;51.20;;;;;;5003937;28;19916;-63
2021/03/26 13:12:20;;;;;;;17.75;12.98;;;17.00;48.70;;;;;;5002326;28;20050;-61
2021/03/26 13:14:52;;;;;;;18.50;12.25;;;16.80;50.10;;;;;;5002064;28;20200;-61
2021/03/26 13:17:30;;;;;;;18.67;13.23;;;16.50;50.30;;;;;;5000780;28;20105;-63
2021/03/26 13:20:22;;;;;;;18.83;12.32;;;16.40;50.10;;;;;;5004089;28;20056;-63
2021/03/26 13:22:55;;;;;;;16.10;11.48;;;17.60;47.60;;;;;;5003006;28;20133;-62
2021/03/26 13:25:43;;;;;;;16.52;12.13;;;18.60;44.30;;;;;;5000637;28;20030;-62
2021/03/26 13:28:24;;;;;;;16.55;11.93;;;18.90;46.10;;;;;;5001944;28;20036;-61
2021/03/26 13:31:10;;;;;;;16.60;11.35;;;18.40;43.70;;;;;;4997986;28;20036;-62
2021/03/26 13:33:53;;;;;;;15.88;11.68;;;18.70;42.90;;;;;;4999287;28;20591;-62